KTBR

Statesboro-Bulloch County Airport

Statesboro, Georgia, USA
METAR KTBR 191915Z AUTO 02008KT 350V050 10SM CLR 34/16 A2995 RMK AO2 T03380158
Observed Flight Rules
Sep-19 @ 19:15 UTC (13 minutes ago) Visual Flight Rules
Wind Visibility Clouds
20° at 8 knots 10 miles
  • Clear skies
Temperatures Readings
Current 34°C / 93°F
Dewpoint 16°C / 61°F
Humidity 34%
Altimeter 29.95" Hg
Pressure 1014 hPa
Elevation 57
METAR KTBR 191915Z AUTO 02008KT 350V050 10SM CLR 34/16 A2995 RMK AO2 T03380158
Observed Flight Rules
Sep-19 @ 19:15 UTC
(13 minutes ago)
VFR
Wind Visibility
20° at 8 knots 10 miles
Clouds
  • Clear skies
Temperature Dewpoint
34°C / 93°F 16°C / 61°F
Humidity Altimeter Pressure
34% 29.95" Hg 1014 hPa